createdAt,value
2019-03-01T00:00:16.418Z,86.00
2019-03-01T00:02:46.787Z,85.90
2019-03-01T00:05:30.611Z,85.90
2019-03-01T00:08:10.382Z,85.90
2019-03-01T00:10:57.841Z,86.00
2019-03-01T00:13:44.967Z,85.40
2019-03-01T00:16:42.043Z,85.40
2019-03-01T00:20:02.358Z,85.20
2019-03-01T00:22:52.437Z,85.40
2019-03-01T00:25:36.709Z,84.50
2019-03-01T00:28:20.706Z,85.00
2019-03-01T00:31:18.810Z,85.50
2019-03-01T00:34:16.420Z,85.80
2019-03-01T00:37:06.228Z,85.30
2019-03-01T00:39:56.606Z,84.70
2019-03-01T00:42:46.656Z,84.20
2019-03-01T00:45:17.049Z,84.40
2019-03-01T00:47:47.674Z,84.10
2019-03-01T00:50:18.031Z,83.90
2019-03-01T00:52:48.376Z,83.30
2019-03-01T00:55:19.024Z,82.00
2019-03-01T00:57:49.698Z,81.80
2019-03-01T01:00:36.643Z,81.60
2019-03-01T01:03:07.288Z,81.10
2019-03-01T01:05:37.613Z,80.70
2019-03-01T01:08:07.970Z,80.90
2019-03-01T01:10:38.354Z,81.20
2019-03-01T01:13:09.211Z,81.50
2019-03-01T01:15:39.815Z,81.60
2019-03-01T01:18:10.425Z,82.50
2019-03-01T01:20:40.797Z,82.80
2019-03-01T01:23:11.705Z,83.20
2019-03-01T01:25:42.073Z,83.20
2019-03-01T01:28:12.662Z,82.80
2019-03-01T01:30:43.308Z,81.80
2019-03-01T01:33:13.950Z,81.60
2019-03-01T01:35:44.308Z,81.40
2019-03-01T01:38:15.627Z,80.90
2019-03-01T01:40:45.972Z,80.50
2019-03-01T01:43:16.904Z,80.90
2019-03-01T01:45:47.496Z,80.90
2019-03-01T01:48:17.817Z,79.20
2019-03-01T01:50:48.472Z,77.60
2019-03-01T01:53:18.816Z,76.90
2019-03-01T01:55:49.594Z,77.00
2019-03-01T01:58:19.933Z,77.70
2019-03-01T02:00:50.303Z,77.60
2019-03-01T02:03:20.912Z,77.60
2019-03-01T02:05:51.566Z,78.10
2019-03-01T02:08:21.920Z,78.50
2019-03-01T02:10:52.264Z,78.80
2019-03-01T02:13:22.599Z,79.90
2019-03-01T02:15:53.107Z,80.40
2019-03-01T02:18:23.709Z,81.00
2019-03-01T02:20:54.059Z,80.80
2019-03-01T02:23:24.708Z,81.00
2019-03-01T02:25:55.075Z,81.10
2019-03-01T02:28:25.676Z,82.40
2019-03-01T02:31:03.948Z,82.80
2019-03-01T02:33:34.258Z,84.20
2019-03-01T02:36:04.647Z,83.90
2019-03-01T02:38:35.269Z,83.80
2019-03-01T02:41:05.724Z,82.90
2019-03-01T02:43:36.098Z,83.00
2019-03-01T02:46:07.017Z,83.00
2019-03-01T02:48:37.488Z,83.30
2019-03-01T02:51:07.844Z,83.30
2019-03-01T02:53:38.170Z,83.70
2019-03-01T02:56:08.557Z,84.20
2019-03-01T02:58:38.877Z,84.50
2019-03-01T03:01:09.521Z,85.10
2019-03-01T03:03:40.175Z,86.30
2019-03-01T03:06:12.501Z,85.70
2019-03-01T03:08:43.231Z,85.40
2019-03-01T03:11:13.576Z,84.50
2019-03-01T03:13:44.497Z,84.10
2019-03-01T03:16:15.126Z,83.60
2019-03-01T03:18:45.985Z,83.70
2019-03-01T03:21:16.660Z,83.70
2019-03-01T03:23:47.311Z,83.90
2019-03-01T03:26:17.898Z,83.90
2019-03-01T03:28:48.273Z,83.70
2019-03-01T03:31:18.638Z,83.30
2019-03-01T03:33:49.020Z,83.30
2019-03-01T03:36:19.616Z,83.80
2019-03-01T03:38:49.977Z,84.00
2019-03-01T03:41:20.577Z,84.10
2019-03-01T03:43:51.201Z,83.50
2019-03-01T03:46:21.580Z,82.10
2019-03-01T03:48:52.269Z,83.50
2019-03-01T03:51:22.880Z,83.60
2019-03-01T03:53:53.542Z,84.70
2019-03-01T03:56:23.882Z,85.00
2019-03-01T03:58:54.581Z,84.70
2019-03-01T04:01:25.180Z,84.20
2019-03-01T04:03:55.518Z,84.30
2019-03-01T04:06:25.864Z,84.00
2019-03-01T04:08:56.239Z,83.80
2019-03-01T04:11:26.717Z,83.40
2019-03-01T04:13:57.075Z,83.40
2019-03-01T04:16:27.442Z,86.10
2019-03-01T04:18:57.805Z,86.00
2019-03-01T04:21:28.417Z,86.10
2019-03-01T04:23:58.750Z,87.60
2019-03-01T04:26:29.412Z,87.70
2019-03-01T04:29:00.063Z,87.70
2019-03-01T04:31:30.472Z,88.00
2019-03-01T04:34:00.812Z,87.60
2019-03-01T04:36:31.825Z,86.20
2019-03-01T04:39:02.555Z,86.20
2019-03-01T04:41:33.469Z,85.40
2019-03-01T04:44:03.817Z,85.20
2019-03-01T04:46:34.171Z,85.20
2019-03-01T04:49:04.776Z,85.40
2019-03-01T04:51:40.081Z,85.10
2019-03-01T04:54:07.485Z,85.20
2019-03-01T04:56:37.819Z,84.90
2019-03-01T04:59:08.171Z,84.10
2019-03-01T05:01:38.837Z,83.80
2019-03-01T05:04:09.205Z,84.10
2019-03-01T05:06:39.897Z,83.90
2019-03-01T05:09:10.475Z,84.60
2019-03-01T05:11:40.839Z,85.70
2019-03-01T05:14:11.719Z,86.00
2019-03-01T05:16:42.052Z,86.30
2019-03-01T05:19:12.764Z,86.30
2019-03-01T05:21:43.360Z,86.30
2019-03-01T05:24:14.301Z,86.40
2019-03-01T05:26:44.671Z,86.40
2019-03-01T05:29:15.282Z,86.40
2019-03-01T05:31:45.886Z,86.40
2019-03-01T05:34:16.261Z,86.40
2019-03-01T05:36:46.583Z,86.40
2019-03-01T05:39:16.935Z,87.30
2019-03-01T05:41:47.287Z,89.40
2019-03-01T05:44:17.668Z,90.70
2019-03-01T05:46:48.286Z,91.20
2019-03-01T05:49:18.634Z,91.80
2019-03-01T05:51:48.962Z,92.40
2019-03-01T05:54:19.316Z,93.10
2019-03-01T05:56:49.909Z,93.10
2019-03-01T05:59:22.489Z,94.60
2019-03-01T06:02:21.672Z,94.70
2019-03-01T06:04:56.944Z,94.60
2019-03-01T06:07:50.269Z,94.50
2019-03-01T06:10:34.319Z,94.40
2019-03-01T06:13:15.207Z,94.30
2019-03-01T06:15:58.895Z,94.40
2019-03-01T06:19:08.361Z,94.50
2019-03-01T06:22:09.011Z,94.50
2019-03-01T06:25:00.921Z,94.50
2019-03-01T06:27:47.933Z,94.40
2019-03-01T06:30:54.130Z,94.50
2019-03-01T06:33:50.309Z,94.50
2019-03-01T06:36:31.467Z,94.40
2019-03-01T06:39:25.763Z,94.50
2019-03-01T06:42:05.976Z,94.60
2019-03-01T06:44:49.571Z,94.60
2019-03-01T06:47:42.793Z,94.50
2019-03-01T06:50:21.188Z,94.50
2019-03-01T06:52:51.560Z,94.50
2019-03-01T06:55:35.020Z,94.50
2019-03-01T06:58:08.467Z,94.90
2019-03-01T07:00:47.302Z,94.80
2019-03-01T07:03:12.758Z,94.60
2019-03-01T07:05:43.651Z,94.60
2019-03-01T07:08:14.012Z,94.60
2019-03-01T07:10:44.697Z,94.60
2019-03-01T07:13:15.294Z,94.40
2019-03-01T07:15:45.646Z,94.80
2019-03-01T07:18:15.993Z,95.10
2019-03-01T07:20:46.727Z,95.40
2019-03-01T07:23:17.109Z,96.20
2019-03-01T07:25:47.443Z,96.30
2019-03-01T07:28:18.115Z,96.90
2019-03-01T07:30:48.999Z,96.40
2019-03-01T07:33:20.257Z,95.80
2019-03-01T07:35:50.615Z,96.30
2019-03-01T07:38:20.981Z,96.20
2019-03-01T07:40:51.694Z,96.30
2019-03-01T07:43:22.040Z,96.40
2019-03-01T07:45:52.393Z,96.30
2019-03-01T07:48:22.801Z,96.20
2019-03-01T07:50:55.216Z,96.20
2019-03-01T07:53:25.417Z,96.20
2019-03-01T07:55:55.850Z,96.50
2019-03-01T07:58:26.785Z,96.40
2019-03-01T08:00:57.472Z,96.30
2019-03-01T08:03:28.177Z,96.30
2019-03-01T08:05:58.510Z,95.90
2019-03-01T08:08:28.873Z,95.40
2019-03-01T08:11:00.155Z,94.90
2019-03-01T08:13:30.867Z,94.80
2019-03-01T08:16:01.235Z,94.60
2019-03-01T08:18:31.598Z,94.50
2019-03-01T08:21:02.582Z,94.60
2019-03-01T08:23:35.064Z,94.00
2019-03-01T08:26:05.028Z,92.40
2019-03-01T08:28:35.369Z,91.70
2019-03-01T08:31:05.713Z,90.50
2019-03-01T08:33:36.237Z,89.90
2019-03-01T08:36:07.252Z,89.00
2019-03-01T08:38:37.825Z,88.30
2019-03-01T08:41:08.182Z,88.00
2019-03-01T08:43:38.889Z,87.20
2019-03-01T08:46:10.502Z,86.90
2019-03-01T08:48:40.834Z,86.80
2019-03-01T08:51:11.514Z,86.00
2019-03-01T08:53:41.872Z,85.50
2019-03-01T08:56:14.676Z,86.90
2019-03-01T08:58:44.627Z,86.80
2019-03-01T09:01:22.749Z,86.50
2019-03-01T09:04:01.081Z,86.10
2019-03-01T09:06:31.738Z,85.90
2019-03-01T09:09:02.060Z,85.20
2019-03-01T09:11:32.549Z,84.50
2019-03-01T09:14:02.956Z,83.80
2019-03-01T09:16:33.918Z,83.30
2019-03-01T09:19:04.666Z,82.60
2019-03-01T09:21:34.973Z,83.70
2019-03-01T09:24:05.612Z,83.80
2019-03-01T09:26:36.008Z,84.10
2019-03-01T09:29:06.308Z,84.90
2019-03-01T09:31:36.641Z,85.00
2019-03-01T09:34:07.155Z,84.40
2019-03-01T09:36:39.183Z,83.70
2019-03-01T09:39:09.777Z,82.80
2019-03-01T09:41:41.614Z,81.90
2019-03-01T09:44:11.940Z,80.00
2019-03-01T09:46:42.573Z,78.50
2019-03-01T09:49:13.440Z,78.10
2019-03-01T09:51:49.077Z,78.10
2019-03-01T09:54:16.101Z,79.10
2019-03-01T09:56:46.736Z,78.70
2019-03-01T09:59:17.099Z,78.10
2019-03-01T10:01:47.732Z,79.30
2019-03-01T10:04:18.388Z,80.00
2019-03-01T10:06:48.774Z,80.00
2019-03-01T10:09:19.110Z,80.00
2019-03-01T10:11:49.437Z,80.10
2019-03-01T10:14:20.449Z,80.40
2019-03-01T10:16:53.403Z,80.60
2019-03-01T10:19:24.067Z,80.50
2019-03-01T10:21:54.677Z,80.90
2019-03-01T10:24:25.058Z,79.50
2019-03-01T10:26:55.407Z,79.40
2019-03-01T10:29:25.754Z,78.20
2019-03-01T10:31:56.648Z,77.60
2019-03-01T10:34:27.249Z,77.10
2019-03-01T10:36:57.596Z,76.20
2019-03-01T10:39:28.389Z,75.50
2019-03-01T10:41:58.765Z,76.60
2019-03-01T10:44:29.772Z,78.00
2019-03-01T10:47:00.124Z,79.00
2019-03-01T10:49:30.775Z,80.00
2019-03-01T10:52:01.234Z,81.40
2019-03-01T10:54:31.562Z,80.20
2019-03-01T10:57:02.184Z,80.90
2019-03-01T10:59:32.808Z,82.70
2019-03-01T11:02:03.149Z,83.10
2019-03-01T11:04:33.823Z,82.30
2019-03-01T11:07:04.234Z,83.70
2019-03-01T11:09:34.566Z,83.10
2019-03-01T11:12:05.179Z,83.70
2019-03-01T11:14:35.572Z,83.50
2019-03-01T11:17:06.453Z,83.80
2019-03-01T11:19:36.881Z,84.50
2019-03-01T11:22:07.219Z,86.80
2019-03-01T11:24:37.581Z,88.20
2019-03-01T11:27:12.804Z,89.30
2019-03-01T11:29:40.279Z,90.70
2019-03-01T11:32:10.898Z,91.10
2019-03-01T11:34:41.528Z,91.20
2019-03-01T11:37:11.911Z,91.60
2019-03-01T11:39:42.572Z,91.90
2019-03-01T11:42:12.930Z,92.50
2019-03-01T11:44:43.298Z,92.90
2019-03-01T11:47:13.918Z,93.50
2019-03-01T11:49:44.552Z,93.80
2019-03-01T11:52:15.220Z,93.70
2019-03-01T11:54:46.110Z,94.20
2019-03-01T11:57:16.785Z,94.60
2019-03-01T11:59:47.119Z,94.80
2019-03-01T12:02:17.576Z,94.50
2019-03-01T12:04:47.949Z,94.40
2019-03-01T12:07:18.287Z,94.00
2019-03-01T12:09:48.647Z,93.80
2019-03-01T12:12:19.314Z,93.30
2019-03-01T12:14:49.936Z,93.60
2019-03-01T12:17:20.294Z,93.50
2019-03-01T12:19:50.951Z,93.40
2019-03-01T12:22:21.325Z,93.20
2019-03-01T12:24:52.241Z,93.20
2019-03-01T12:27:22.866Z,93.20
2019-03-01T12:29:53.504Z,93.00
2019-03-01T12:32:24.392Z,92.90
2019-03-01T12:34:54.758Z,92.50
2019-03-01T12:37:25.411Z,91.50
2019-03-01T12:39:55.749Z,91.70
2019-03-01T12:42:26.078Z,92.10
2019-03-01T12:44:56.452Z,91.60
2019-03-01T12:47:26.778Z,91.90
2019-03-01T12:49:57.167Z,91.80
2019-03-01T12:52:27.767Z,91.50
2019-03-01T12:54:58.646Z,91.40
2019-03-01T12:57:29.315Z,91.50
2019-03-01T12:59:59.972Z,91.80
2019-03-01T13:02:30.327Z,91.70
2019-03-01T13:05:00.975Z,91.70
2019-03-01T13:07:31.700Z,91.40
2019-03-01T13:10:03.072Z,91.60
2019-03-01T13:12:34.381Z,91.20
2019-03-01T13:15:05.572Z,91.00
2019-03-01T13:17:37.312Z,90.40
2019-03-01T13:20:19.316Z,90.00
2019-03-01T13:22:49.692Z,90.50
2019-03-01T13:25:20.343Z,90.30
2019-03-01T13:27:52.369Z,90.30
2019-03-01T13:30:26.077Z,90.50
2019-03-01T13:32:58.874Z,90.40
2019-03-01T13:35:28.684Z,90.60
2019-03-01T13:37:59.041Z,91.20
2019-03-01T13:40:29.967Z,91.50
2019-03-01T13:43:00.334Z,91.30
2019-03-01T13:45:30.661Z,90.20
2019-03-01T13:48:03.157Z,90.30
2019-03-01T13:50:33.592Z,91.00
2019-03-01T13:53:03.959Z,91.50
2019-03-01T13:55:35.106Z,92.20
2019-03-01T13:58:05.494Z,93.60
2019-03-01T14:01:00.166Z,94.50
2019-03-01T14:03:30.803Z,95.50
2019-03-01T14:06:02.251Z,95.90
2019-03-01T14:08:32.654Z,96.60
2019-03-01T14:11:03.280Z,98.00
2019-03-01T14:13:33.636Z,98.80
2019-03-01T14:16:04.263Z,99.40
2019-03-01T14:18:36.849Z,98.50
2019-03-01T14:21:06.980Z,97.70
2019-03-01T14:23:37.342Z,96.30
2019-03-01T14:26:08.016Z,95.40
2019-03-01T14:28:41.173Z,94.30
2019-03-01T14:31:12.247Z,93.60
2019-03-01T14:33:42.768Z,91.70
2019-03-01T14:36:13.723Z,90.40
2019-03-01T14:38:44.469Z,90.30
2019-03-01T14:41:14.821Z,88.20
2019-03-01T14:43:45.482Z,84.20
2019-03-01T14:46:17.617Z,83.80
2019-03-01T14:48:48.705Z,80.20
2019-03-01T14:51:19.399Z,80.30
2019-03-01T14:53:49.775Z,76.50
2019-03-01T14:56:25.315Z,73.30
2019-03-01T14:59:14.741Z,71.40
2019-03-01T15:02:03.138Z,69.80
2019-03-01T15:04:33.582Z,70.10
2019-03-01T15:07:03.913Z,70.60
2019-03-01T15:09:34.252Z,68.50
2019-03-01T15:12:04.862Z,66.70
2019-03-01T15:14:35.378Z,66.80
2019-03-01T15:17:06.114Z,66.10
2019-03-01T15:19:36.457Z,65.30
2019-03-01T15:22:09.804Z,61.90
2019-03-01T15:24:39.154Z,61.70
2019-03-01T15:27:09.475Z,62.30
2019-03-01T15:29:40.102Z,59.50
2019-03-01T15:32:12.439Z,59.20
2019-03-01T15:34:42.781Z,59.10
2019-03-01T15:37:13.320Z,58.70
2019-03-01T15:39:43.811Z,58.30
2019-03-01T15:42:17.444Z,58.20
2019-03-01T15:44:47.095Z,56.80
2019-03-01T15:47:17.558Z,58.10
2019-03-01T15:49:51.094Z,58.10
2019-03-01T15:52:19.938Z,56.70
2019-03-01T15:54:50.290Z,56.40
2019-03-01T15:57:20.888Z,53.80
2019-03-01T15:59:51.515Z,53.70
2019-03-01T16:02:22.211Z,53.70
2019-03-01T16:04:53.144Z,53.70
2019-03-01T16:07:23.505Z,54.50
2019-03-01T16:09:54.397Z,53.00
2019-03-01T16:12:24.989Z,52.20
2019-03-01T16:14:57.415Z,51.90
2019-03-01T16:17:27.375Z,51.40
2019-03-01T16:19:58.021Z,52.20
2019-03-01T16:22:28.630Z,52.30
2019-03-01T16:24:58.969Z,52.10
2019-03-01T16:27:29.599Z,51.70
2019-03-01T16:29:59.937Z,50.40
2019-03-01T16:32:30.292Z,50.20
2019-03-01T16:35:00.623Z,51.00
2019-03-01T16:37:31.210Z,50.70
2019-03-01T16:40:01.837Z,50.60
2019-03-01T16:42:38.497Z,50.80
2019-03-01T16:45:06.835Z,51.00
2019-03-01T16:47:38.308Z,50.60
2019-03-01T16:50:22.730Z,50.10
2019-03-01T16:52:53.324Z,50.20
2019-03-01T16:55:29.610Z,50.60
2019-03-01T16:58:06.733Z,50.60
2019-03-01T17:00:32.114Z,50.20
2019-03-01T17:03:16.589Z,50.20
2019-03-01T17:05:45.075Z,48.70
2019-03-01T17:08:16.483Z,48.80
2019-03-01T17:10:47.152Z,48.90
2019-03-01T17:13:17.532Z,48.80
2019-03-01T17:15:48.549Z,48.90
2019-03-01T17:18:19.771Z,47.40
2019-03-01T17:20:50.395Z,48.10
2019-03-01T17:23:20.747Z,47.10
2019-03-01T17:25:51.168Z,46.80
2019-03-01T17:28:26.297Z,46.90
2019-03-01T17:30:54.543Z,46.60
2019-03-01T17:33:24.878Z,47.00
2019-03-01T17:35:55.202Z,47.10
2019-03-01T17:38:26.012Z,47.30
2019-03-01T17:40:56.925Z,47.50
2019-03-01T17:43:29.662Z,47.70
2019-03-01T17:45:59.578Z,47.40
2019-03-01T17:48:29.909Z,47.20
2019-03-01T17:51:00.318Z,47.40
2019-03-01T17:53:30.723Z,47.90
2019-03-01T17:56:01.352Z,48.30
2019-03-01T17:58:31.985Z,48.70
2019-03-01T18:01:02.873Z,48.70
2019-03-01T18:03:34.253Z,48.60
2019-03-01T18:06:05.174Z,49.00
2019-03-01T18:08:35.883Z,48.80
2019-03-01T18:11:08.655Z,49.10
2019-03-01T18:13:39.895Z,48.90
2019-03-01T18:16:10.237Z,49.00
2019-03-01T18:18:42.512Z,49.10
2019-03-01T18:21:13.977Z,48.70
2019-03-01T18:23:44.340Z,48.90
2019-03-01T18:26:14.954Z,49.30
2019-03-01T18:28:45.556Z,49.70
2019-03-01T18:31:15.928Z,48.80
2019-03-01T18:33:46.637Z,48.90
2019-03-01T18:36:16.961Z,49.10
2019-03-01T18:38:47.600Z,49.40
2019-03-01T18:41:18.219Z,49.30
2019-03-01T18:43:49.334Z,49.50
2019-03-01T18:46:20.650Z,49.30
2019-03-01T18:48:53.941Z,49.70
2019-03-01T18:51:24.281Z,50.40
2019-03-01T18:53:54.620Z,50.20
2019-03-01T18:56:28.628Z,50.30
2019-03-01T18:58:57.862Z,50.30
2019-03-01T19:01:28.470Z,50.40
2019-03-01T19:03:59.095Z,51.40
2019-03-01T19:06:30.074Z,51.20
2019-03-01T19:09:00.428Z,51.10
2019-03-01T19:11:30.885Z,51.40
2019-03-01T19:14:01.860Z,51.90
2019-03-01T19:16:32.953Z,52.70
2019-03-01T19:19:03.865Z,52.50
2019-03-01T19:21:34.254Z,52.90
2019-03-01T19:24:07.597Z,53.10
2019-03-01T19:26:37.615Z,53.70
2019-03-01T19:29:08.254Z,53.70
2019-03-01T19:31:39.272Z,53.60
2019-03-01T19:34:13.061Z,53.40
2019-03-01T19:36:41.988Z,53.50
2019-03-01T19:39:18.814Z,53.50
2019-03-01T19:41:49.454Z,53.10
2019-03-01T19:44:20.113Z,53.20
2019-03-01T19:46:51.361Z,53.30
2019-03-01T19:49:23.027Z,53.50
2019-03-01T19:51:53.864Z,53.50
2019-03-01T19:54:24.522Z,53.50
2019-03-01T19:56:57.664Z,54.10
2019-03-01T19:59:26.912Z,54.30
2019-03-01T20:01:57.527Z,54.60
2019-03-01T20:04:28.184Z,54.40
2019-03-01T20:06:58.539Z,54.10
2019-03-01T20:09:28.865Z,54.30
2019-03-01T20:12:02.684Z,54.10
2019-03-01T20:14:33.791Z,54.50
2019-03-01T20:17:03.565Z,54.70
2019-03-01T20:19:34.159Z,54.90
2019-03-01T20:22:04.546Z,54.70
2019-03-01T20:24:40.065Z,54.70
2019-03-01T20:27:07.476Z,54.30
2019-03-01T20:29:37.815Z,55.10
2019-03-01T20:32:08.134Z,54.20
2019-03-01T20:34:38.832Z,54.40
2019-03-01T20:37:09.198Z,54.30
2019-03-01T20:39:39.541Z,53.70
2019-03-01T20:42:09.892Z,53.20
2019-03-01T20:44:40.518Z,53.20
2019-03-01T20:47:10.836Z,53.30
2019-03-01T20:49:41.447Z,52.90
2019-03-01T20:52:11.772Z,52.90
2019-03-01T20:54:42.439Z,52.50
2019-03-01T20:57:13.042Z,52.20
2019-03-01T20:59:46.738Z,52.90
2019-03-01T21:02:15.905Z,52.20
2019-03-01T21:04:53.391Z,52.20
2019-03-01T21:07:21.387Z,52.20
2019-03-01T21:09:51.994Z,52.80
2019-03-01T21:12:22.922Z,52.70
2019-03-01T21:14:53.298Z,52.70
2019-03-01T21:17:23.931Z,52.70
2019-03-01T21:19:54.537Z,51.90
2019-03-01T21:22:25.125Z,51.70
2019-03-01T21:24:55.538Z,52.00
2019-03-01T21:27:26.738Z,52.00
2019-03-01T21:29:57.104Z,52.40
2019-03-01T21:32:27.431Z,52.10
2019-03-01T21:34:57.769Z,52.70
2019-03-01T21:37:28.146Z,52.80
2019-03-01T21:40:00.320Z,52.90
2019-03-01T21:42:30.976Z,53.00
2019-03-01T21:45:01.368Z,52.80
2019-03-01T21:47:32.992Z,52.80
2019-03-01T21:50:05.533Z,52.30
2019-03-01T21:52:35.786Z,52.80
2019-03-01T21:55:10.762Z,52.80
2019-03-01T21:57:41.073Z,52.80
2019-03-01T22:00:17.963Z,52.40
2019-03-01T22:02:48.962Z,52.20
2019-03-01T22:05:20.526Z,52.00
2019-03-01T22:07:50.893Z,52.70
2019-03-01T22:10:21.239Z,52.50
2019-03-01T22:12:51.660Z,52.20
2019-03-01T22:15:29.355Z,52.00
2019-03-01T22:18:00.038Z,51.70
2019-03-01T22:20:30.367Z,51.90
2019-03-01T22:23:01.016Z,51.80
2019-03-01T22:25:34.481Z,51.90
2019-03-01T22:28:03.735Z,51.80
2019-03-01T22:30:34.407Z,52.00
2019-03-01T22:33:05.273Z,52.10
2019-03-01T22:35:35.917Z,52.50
2019-03-01T22:38:06.582Z,52.80
2019-03-01T22:40:37.208Z,52.00
2019-03-01T22:43:08.653Z,52.00
2019-03-01T22:45:39.034Z,51.90
2019-03-01T22:48:11.771Z,51.80
2019-03-01T22:50:42.650Z,51.80
2019-03-01T22:53:13.779Z,52.00
2019-03-01T22:55:44.154Z,51.90
2019-03-01T22:58:14.745Z,52.20
2019-03-01T23:01:00.175Z,52.20
2019-03-01T23:03:30.501Z,52.20
2019-03-01T23:06:01.220Z,52.10
2019-03-01T23:08:35.424Z,52.30
2019-03-01T23:11:03.920Z,52.10
2019-03-01T23:13:34.270Z,52.60
2019-03-01T23:16:04.889Z,52.50
2019-03-01T23:18:37.586Z,52.30
2019-03-01T23:21:07.887Z,52.40
2019-03-01T23:23:38.563Z,52.70
2019-03-01T23:26:08.880Z,52.60
2019-03-01T23:28:40.794Z,52.50
2019-03-01T23:31:12.275Z,52.90
2019-03-01T23:33:42.895Z,52.90
2019-03-01T23:36:13.283Z,52.90
2019-03-01T23:38:46.600Z,53.60
2019-03-01T23:41:16.409Z,53.30
2019-03-01T23:43:47.055Z,53.10
2019-03-01T23:46:17.948Z,53.30
2019-03-01T23:48:48.912Z,53.30
2019-03-01T23:51:20.201Z,53.90
2019-03-01T23:53:51.073Z,54.10
2019-03-01T23:56:21.445Z,54.30
2019-03-01T23:58:52.995Z,54.50
